sensor_id;sensor_type;location;lat;lon;timestamp;P1;durP1;ratioP1;P2;durP2;ratioP2
70337;SDS011;57757;53.198;19.646;2024-02-21T00:01:27;18.60;;;4.90;;
70337;SDS011;57757;53.198;19.646;2024-02-21T00:03:55;18.80;;;4.70;;
70337;SDS011;57757;53.198;19.646;2024-02-21T00:06:22;20.40;;;4.40;;
70337;SDS011;57757;53.198;19.646;2024-02-21T00:08:50;18.40;;;5.00;;
70337;SDS011;57757;53.198;19.646;2024-02-21T00:11:18;16.00;;;4.70;;
70337;SDS011;57757;53.198;19.646;2024-02-21T00:13:46;17.60;;;4.30;;
70337;SDS011;57757;53.198;19.646;2024-02-21T00:16:13;22.50;;;5.70;;
70337;SDS011;57757;53.198;19.646;2024-02-21T00:18:43;13.80;;;4.10;;
70337;SDS011;57757;53.198;19.646;2024-02-21T00:21:11;16.10;;;5.50;;
70337;SDS011;57757;53.198;19.646;2024-02-21T00:23:45;22.40;;;5.70;;
70337;SDS011;57757;53.198;19.646;2024-02-21T00:26:14;23.70;;;5.50;;
70337;SDS011;57757;53.198;19.646;2024-02-21T00:28:41;21.40;;;5.80;;
70337;SDS011;57757;53.198;19.646;2024-02-21T00:31:10;19.10;;;4.70;;
70337;SDS011;57757;53.198;19.646;2024-02-21T00:33:38;20.90;;;5.70;;
70337;SDS011;57757;53.198;19.646;2024-02-21T00:36:05;17.60;;;7.10;;
70337;SDS011;57757;53.198;19.646;2024-02-21T00:38:33;17.30;;;4.80;;
70337;SDS011;57757;53.198;19.646;2024-02-21T00:41:00;19.20;;;5.50;;
70337;SDS011;57757;53.198;19.646;2024-02-21T00:43:28;27.40;;;6.70;;
70337;SDS011;57757;53.198;19.646;2024-02-21T00:45:55;22.10;;;6.40;;
70337;SDS011;57757;53.198;19.646;2024-02-21T00:48:23;25.20;;;7.20;;
70337;SDS011;57757;53.198;19.646;2024-02-21T00:50:51;17.60;;;5.10;;
70337;SDS011;57757;53.198;19.646;2024-02-21T00:53:19;21.50;;;5.40;;
70337;SDS011;57757;53.198;19.646;2024-02-21T00:55:46;17.90;;;4.80;;
70337;SDS011;57757;53.198;19.646;2024-02-21T00:58:14;22.30;;;6.00;;
70337;SDS011;57757;53.198;19.646;2024-02-21T01:00:42;30.40;;;7.40;;
70337;SDS011;57757;53.198;19.646;2024-02-21T01:03:09;21.30;;;6.10;;
70337;SDS011;57757;53.198;19.646;2024-02-21T01:05:37;20.80;;;5.30;;
70337;SDS011;57757;53.198;19.646;2024-02-21T01:08:05;41.70;;;10.90;;
70337;SDS011;57757;53.198;19.646;2024-02-21T01:10:33;21.90;;;6.30;;
70337;SDS011;57757;53.198;19.646;2024-02-21T01:13:00;69.40;;;15.00;;
70337;SDS011;57757;53.198;19.646;2024-02-21T01:15:28;56.00;;;13.20;;
70337;SDS011;57757;53.198;19.646;2024-02-21T01:17:56;45.30;;;11.80;;
70337;SDS011;57757;53.198;19.646;2024-02-21T01:20:23;47.70;;;11.40;;
70337;SDS011;57757;53.198;19.646;2024-02-21T01:22:51;28.20;;;7.20;;
70337;SDS011;57757;53.198;19.646;2024-02-21T01:25:18;19.40;;;6.20;;
70337;SDS011;57757;53.198;19.646;2024-02-21T01:27:46;23.20;;;6.30;;
70337;SDS011;57757;53.198;19.646;2024-02-21T01:30:13;18.40;;;5.60;;
70337;SDS011;57757;53.198;19.646;2024-02-21T01:32:41;21.40;;;7.10;;
70337;SDS011;57757;53.198;19.646;2024-02-21T01:35:09;27.10;;;7.90;;
70337;SDS011;57757;53.198;19.646;2024-02-21T01:37:36;18.00;;;4.70;;
70337;SDS011;57757;53.198;19.646;2024-02-21T01:40:04;20.60;;;6.00;;
70337;SDS011;57757;53.198;19.646;2024-02-21T01:42:32;20.70;;;7.20;;
70337;SDS011;57757;53.198;19.646;2024-02-21T01:45:00;21.60;;;5.50;;
70337;SDS011;57757;53.198;19.646;2024-02-21T01:47:27;18.00;;;4.90;;
70337;SDS011;57757;53.198;19.646;2024-02-21T01:49:55;15.00;;;4.20;;
70337;SDS011;57757;53.198;19.646;2024-02-21T01:52:23;11.70;;;4.00;;
70337;SDS011;57757;53.198;19.646;2024-02-21T01:54:51;16.00;;;3.60;;
70337;SDS011;57757;53.198;19.646;2024-02-21T01:57:18;15.30;;;4.30;;
70337;SDS011;57757;53.198;19.646;2024-02-21T01:59:46;17.60;;;4.80;;
70337;SDS011;57757;53.198;19.646;2024-02-21T02:02:13;15.30;;;3.90;;
70337;SDS011;57757;53.198;19.646;2024-02-21T02:04:43;16.70;;;4.40;;
70337;SDS011;57757;53.198;19.646;2024-02-21T02:07:12;17.40;;;4.00;;
70337;SDS011;57757;53.198;19.646;2024-02-21T02:09:40;14.80;;;4.10;;
70337;SDS011;57757;53.198;19.646;2024-02-21T02:12:07;16.50;;;4.60;;
70337;SDS011;57757;53.198;19.646;2024-02-21T02:14:35;20.60;;;4.80;;
70337;SDS011;57757;53.198;19.646;2024-02-21T02:17:03;16.30;;;4.30;;
70337;SDS011;57757;53.198;19.646;2024-02-21T02:19:30;20.40;;;5.10;;
70337;SDS011;57757;53.198;19.646;2024-02-21T02:22:06;18.80;;;4.90;;
70337;SDS011;57757;53.198;19.646;2024-02-21T02:24:39;18.30;;;4.80;;
70337;SDS011;57757;53.198;19.646;2024-02-21T02:27:07;18.70;;;5.00;;
70337;SDS011;57757;53.198;19.646;2024-02-21T02:29:34;22.90;;;5.30;;
70337;SDS011;57757;53.198;19.646;2024-02-21T02:32:02;22.90;;;5.70;;
70337;SDS011;57757;53.198;19.646;2024-02-21T02:34:29;18.30;;;6.90;;
70337;SDS011;57757;53.198;19.646;2024-02-21T02:36:58;20.60;;;6.60;;
70337;SDS011;57757;53.198;19.646;2024-02-21T02:39:25;28.00;;;7.10;;
70337;SDS011;57757;53.198;19.646;2024-02-21T02:41:52;23.90;;;7.20;;
70337;SDS011;57757;53.198;19.646;2024-02-21T02:44:20;24.60;;;6.80;;
70337;SDS011;57757;53.198;19.646;2024-02-21T02:46:47;23.90;;;7.00;;
70337;SDS011;57757;53.198;19.646;2024-02-21T02:49:15;20.50;;;7.70;;
70337;SDS011;57757;53.198;19.646;2024-02-21T02:51:43;28.00;;;8.00;;
70337;SDS011;57757;53.198;19.646;2024-02-21T02:54:10;26.70;;;8.50;;
70337;SDS011;57757;53.198;19.646;2024-02-21T02:56:38;26.10;;;8.10;;
70337;SDS011;57757;53.198;19.646;2024-02-21T02:59:06;31.20;;;8.50;;
70337;SDS011;57757;53.198;19.646;2024-02-21T03:01:33;29.90;;;8.20;;
70337;SDS011;57757;53.198;19.646;2024-02-21T03:04:02;31.30;;;9.00;;
70337;SDS011;57757;53.198;19.646;2024-02-21T03:06:30;21.40;;;8.10;;
70337;SDS011;57757;53.198;19.646;2024-02-21T03:08:58;27.30;;;7.90;;
70337;SDS011;57757;53.198;19.646;2024-02-21T03:11:27;25.50;;;8.00;;
70337;SDS011;57757;53.198;19.646;2024-02-21T03:13:57;28.40;;;8.60;;
70337;SDS011;57757;53.198;19.646;2024-02-21T03:16:25;23.50;;;7.80;;
70337;SDS011;57757;53.198;19.646;2024-02-21T03:18:52;29.60;;;8.30;;
70337;SDS011;57757;53.198;19.646;2024-02-21T03:21:20;24.20;;;7.80;;
70337;SDS011;57757;53.198;19.646;2024-02-21T03:23:47;27.20;;;7.20;;
70337;SDS011;57757;53.198;19.646;2024-02-21T03:26:15;34.40;;;9.20;;
70337;SDS011;57757;53.198;19.646;2024-02-21T03:28:44;26.70;;;8.20;;
70337;SDS011;57757;53.198;19.646;2024-02-21T03:31:14;27.80;;;9.10;;
70337;SDS011;57757;53.198;19.646;2024-02-21T03:33:42;24.90;;;8.00;;
70337;SDS011;57757;53.198;19.646;2024-02-21T03:36:13;26.50;;;8.70;;
70337;SDS011;57757;53.198;19.646;2024-02-21T03:38:42;23.40;;;8.50;;
70337;SDS011;57757;53.198;19.646;2024-02-21T03:41:10;28.40;;;8.50;;
70337;SDS011;57757;53.198;19.646;2024-02-21T03:43:38;23.60;;;8.30;;
70337;SDS011;57757;53.198;19.646;2024-02-21T03:46:06;25.00;;;8.40;;
70337;SDS011;57757;53.198;19.646;2024-02-21T03:48:34;24.10;;;8.00;;
70337;SDS011;57757;53.198;19.646;2024-02-21T03:51:01;26.30;;;8.20;;
70337;SDS011;57757;53.198;19.646;2024-02-21T03:53:29;26.40;;;7.60;;
70337;SDS011;57757;53.198;19.646;2024-02-21T03:55:56;24.90;;;8.40;;
70337;SDS011;57757;53.198;19.646;2024-02-21T03:58:27;29.90;;;9.00;;
70337;SDS011;57757;53.198;19.646;2024-02-21T04:00:54;20.70;;;7.80;;
70337;SDS011;57757;53.198;19.646;2024-02-21T04:03:22;27.80;;;8.90;;
70337;SDS011;57757;53.198;19.646;2024-02-21T04:05:49;22.80;;;7.50;;
70337;SDS011;57757;53.198;19.646;2024-02-21T04:08:18;27.00;;;8.60;;
70337;SDS011;57757;53.198;19.646;2024-02-21T04:10:45;28.70;;;9.50;;
70337;SDS011;57757;53.198;19.646;2024-02-21T04:13:13;27.80;;;9.60;;
70337;SDS011;57757;53.198;19.646;2024-02-21T04:15:40;29.90;;;9.00;;
70337;SDS011;57757;53.198;19.646;2024-02-21T04:18:08;29.10;;;9.40;;
70337;SDS011;57757;53.198;19.646;2024-02-21T04:20:35;27.70;;;9.00;;
70337;SDS011;57757;53.198;19.646;2024-02-21T04:23:03;28.00;;;9.10;;
70337;SDS011;57757;53.198;19.646;2024-02-21T04:25:30;30.90;;;9.40;;
70337;SDS011;57757;53.198;19.646;2024-02-21T04:27:58;31.40;;;9.70;;
70337;SDS011;57757;53.198;19.646;2024-02-21T04:30:25;28.30;;;10.70;;
70337;SDS011;57757;53.198;19.646;2024-02-21T04:32:53;31.10;;;10.70;;
70337;SDS011;57757;53.198;19.646;2024-02-21T04:35:20;30.50;;;11.30;;
70337;SDS011;57757;53.198;19.646;2024-02-21T04:37:49;28.90;;;9.50;;
70337;SDS011;57757;53.198;19.646;2024-02-21T04:40:16;20.70;;;8.40;;
70337;SDS011;57757;53.198;19.646;2024-02-21T04:42:44;36.00;;;10.50;;
70337;SDS011;57757;53.198;19.646;2024-02-21T04:45:11;32.70;;;10.10;;
70337;SDS011;57757;53.198;19.646;2024-02-21T04:47:39;34.30;;;10.70;;
70337;SDS011;57757;53.198;19.646;2024-02-21T04:50:06;30.90;;;10.90;;
70337;SDS011;57757;53.198;19.646;2024-02-21T04:52:34;30.80;;;10.10;;
70337;SDS011;57757;53.198;19.646;2024-02-21T04:55:02;35.30;;;10.60;;
70337;SDS011;57757;53.198;19.646;2024-02-21T04:57:29;49.80;;;15.60;;
70337;SDS011;57757;53.198;19.646;2024-02-21T04:59:58;139.10;;;54.80;;
70337;SDS011;57757;53.198;19.646;2024-02-21T05:02:26;35.90;;;13.30;;
70337;SDS011;57757;53.198;19.646;2024-02-21T05:04:53;35.40;;;11.60;;
70337;SDS011;57757;53.198;19.646;2024-02-21T05:07:21;36.70;;;12.50;;
70337;SDS011;57757;53.198;19.646;2024-02-21T05:09:49;34.80;;;11.70;;
70337;SDS011;57757;53.198;19.646;2024-02-21T05:12:16;39.10;;;13.00;;
70337;SDS011;57757;53.198;19.646;2024-02-21T05:14:43;35.00;;;11.90;;
70337;SDS011;57757;53.198;19.646;2024-02-21T05:17:11;30.10;;;11.20;;
70337;SDS011;57757;53.198;19.646;2024-02-21T05:19:38;32.10;;;11.50;;
70337;SDS011;57757;53.198;19.646;2024-02-21T05:22:06;45.50;;;13.90;;
70337;SDS011;57757;53.198;19.646;2024-02-21T05:24:33;41.20;;;13.10;;
70337;SDS011;57757;53.198;19.646;2024-02-21T05:27:01;42.40;;;14.50;;
70337;SDS011;57757;53.198;19.646;2024-02-21T05:29:28;35.60;;;12.60;;
70337;SDS011;57757;53.198;19.646;2024-02-21T05:31:56;59.60;;;18.10;;
70337;SDS011;57757;53.198;19.646;2024-02-21T05:34:25;46.30;;;15.40;;
70337;SDS011;57757;53.198;19.646;2024-02-21T05:36:54;38.60;;;11.70;;
70337;SDS011;57757;53.198;19.646;2024-02-21T05:39:21;31.80;;;11.50;;
70337;SDS011;57757;53.198;19.646;2024-02-21T05:41:50;42.00;;;13.70;;
70337;SDS011;57757;53.198;19.646;2024-02-21T05:44:18;46.20;;;14.10;;
70337;SDS011;57757;53.198;19.646;2024-02-21T05:46:46;42.80;;;13.20;;
70337;SDS011;57757;53.198;19.646;2024-02-21T05:49:13;50.40;;;14.70;;
70337;SDS011;57757;53.198;19.646;2024-02-21T05:51:41;57.20;;;16.60;;
70337;SDS011;57757;53.198;19.646;2024-02-21T05:54:09;52.00;;;15.10;;
70337;SDS011;57757;53.198;19.646;2024-02-21T05:56:36;38.00;;;13.60;;
70337;SDS011;57757;53.198;19.646;2024-02-21T05:59:04;48.70;;;17.00;;
70337;SDS011;57757;53.198;19.646;2024-02-21T06:01:32;59.40;;;16.20;;
70337;SDS011;57757;53.198;19.646;2024-02-21T06:03:59;46.90;;;16.50;;
70337;SDS011;57757;53.198;19.646;2024-02-21T06:06:27;44.00;;;16.10;;
70337;SDS011;57757;53.198;19.646;2024-02-21T06:08:54;42.50;;;14.60;;
70337;SDS011;57757;53.198;19.646;2024-02-21T06:11:22;43.60;;;15.30;;
70337;SDS011;57757;53.198;19.646;2024-02-21T06:13:50;44.50;;;15.20;;
70337;SDS011;57757;53.198;19.646;2024-02-21T06:16:17;55.00;;;16.90;;
70337;SDS011;57757;53.198;19.646;2024-02-21T06:18:45;48.50;;;15.70;;
70337;SDS011;57757;53.198;19.646;2024-02-21T06:21:12;46.80;;;15.90;;
70337;SDS011;57757;53.198;19.646;2024-02-21T06:23:40;49.30;;;17.50;;
70337;SDS011;57757;53.198;19.646;2024-02-21T06:26:07;45.70;;;17.00;;
70337;SDS011;57757;53.198;19.646;2024-02-21T06:28:35;43.90;;;16.50;;
70337;SDS011;57757;53.198;19.646;2024-02-21T06:31:02;41.90;;;15.80;;
70337;SDS011;57757;53.198;19.646;2024-02-21T06:33:30;44.30;;;16.10;;
70337;SDS011;57757;53.198;19.646;2024-02-21T06:35:58;40.20;;;15.90;;
70337;SDS011;57757;53.198;19.646;2024-02-21T06:38:25;42.30;;;15.90;;
70337;SDS011;57757;53.198;19.646;2024-02-21T06:40:53;41.70;;;14.70;;
70337;SDS011;57757;53.198;19.646;2024-02-21T06:43:21;37.50;;;17.50;;
70337;SDS011;57757;53.198;19.646;2024-02-21T06:45:49;43.90;;;15.60;;
70337;SDS011;57757;53.198;19.646;2024-02-21T06:48:19;37.50;;;15.00;;
70337;SDS011;57757;53.198;19.646;2024-02-21T06:50:47;48.40;;;17.80;;
70337;SDS011;57757;53.198;19.646;2024-02-21T06:53:15;44.40;;;16.70;;
70337;SDS011;57757;53.198;19.646;2024-02-21T06:55:42;111.90;;;36.60;;
70337;SDS011;57757;53.198;19.646;2024-02-21T06:58:10;69.30;;;26.90;;
70337;SDS011;57757;53.198;19.646;2024-02-21T07:00:39;55.40;;;22.40;;
70337;SDS011;57757;53.198;19.646;2024-02-21T07:03:07;39.80;;;15.10;;
70337;SDS011;57757;53.198;19.646;2024-02-21T07:05:35;58.40;;;20.50;;
70337;SDS011;57757;53.198;19.646;2024-02-21T07:08:03;49.40;;;17.00;;
70337;SDS011;57757;53.198;19.646;2024-02-21T07:10:31;50.20;;;17.10;;
70337;SDS011;57757;53.198;19.646;2024-02-21T07:12:58;48.30;;;18.10;;
70337;SDS011;57757;53.198;19.646;2024-02-21T07:15:26;59.90;;;23.80;;
70337;SDS011;57757;53.198;19.646;2024-02-21T07:17:54;49.80;;;18.10;;
70337;SDS011;57757;53.198;19.646;2024-02-21T07:20:22;36.60;;;14.10;;
70337;SDS011;57757;53.198;19.646;2024-02-21T07:22:50;38.10;;;15.30;;
70337;SDS011;57757;53.198;19.646;2024-02-21T07:25:18;50.30;;;16.80;;
70337;SDS011;57757;53.198;19.646;2024-02-21T07:27:45;39.70;;;14.70;;
70337;SDS011;57757;53.198;19.646;2024-02-21T07:30:13;42.40;;;14.10;;
70337;SDS011;57757;53.198;19.646;2024-02-21T07:32:44;43.60;;;16.90;;
70337;SDS011;57757;53.198;19.646;2024-02-21T07:35:11;44.20;;;18.30;;
70337;SDS011;57757;53.198;19.646;2024-02-21T07:37:39;38.80;;;15.60;;
70337;SDS011;57757;53.198;19.646;2024-02-21T07:40:12;42.20;;;15.80;;
70337;SDS011;57757;53.198;19.646;2024-02-21T07:42:41;39.20;;;13.30;;
70337;SDS011;57757;53.198;19.646;2024-02-21T07:45:12;37.00;;;14.40;;
70337;SDS011;57757;53.198;19.646;2024-02-21T07:47:40;44.10;;;17.30;;
70337;SDS011;57757;53.198;19.646;2024-02-21T07:50:07;42.70;;;16.20;;
70337;SDS011;57757;53.198;19.646;2024-02-21T07:52:35;65.00;;;27.10;;
70337;SDS011;57757;53.198;19.646;2024-02-21T07:55:02;68.80;;;24.60;;
70337;SDS011;57757;53.198;19.646;2024-02-21T07:57:30;48.00;;;17.40;;
70337;SDS011;57757;53.198;19.646;2024-02-21T07:59:58;37.50;;;15.80;;
70337;SDS011;57757;53.198;19.646;2024-02-21T08:02:25;37.80;;;15.60;;
70337;SDS011;57757;53.198;19.646;2024-02-21T08:04:53;50.10;;;23.50;;
70337;SDS011;57757;53.198;19.646;2024-02-21T08:07:20;50.40;;;21.80;;
70337;SDS011;57757;53.198;19.646;2024-02-21T08:09:48;50.50;;;19.70;;
70337;SDS011;57757;53.198;19.646;2024-02-21T08:12:15;43.80;;;20.40;;
70337;SDS011;57757;53.198;19.646;2024-02-21T08:14:42;35.70;;;14.40;;
70337;SDS011;57757;53.198;19.646;2024-02-21T08:17:11;36.00;;;13.00;;
70337;SDS011;57757;53.198;19.646;2024-02-21T08:19:38;38.30;;;16.60;;
70337;SDS011;57757;53.198;19.646;2024-02-21T08:22:06;33.90;;;12.20;;
70337;SDS011;57757;53.198;19.646;2024-02-21T08:24:34;35.90;;;14.10;;
70337;SDS011;57757;53.198;19.646;2024-02-21T08:27:02;39.10;;;14.50;;
70337;SDS011;57757;53.198;19.646;2024-02-21T08:29:29;36.70;;;14.20;;
70337;SDS011;57757;53.198;19.646;2024-02-21T08:31:57;37.70;;;15.30;;
70337;SDS011;57757;53.198;19.646;2024-02-21T08:34:24;46.10;;;16.50;;
70337;SDS011;57757;53.198;19.646;2024-02-21T08:36:52;53.40;;;21.50;;
70337;SDS011;57757;53.198;19.646;2024-02-21T08:39:19;68.50;;;27.10;;
70337;SDS011;57757;53.198;19.646;2024-02-21T08:41:47;50.60;;;25.60;;
70337;SDS011;57757;53.198;19.646;2024-02-21T08:44:24;40.40;;;15.90;;
70337;SDS011;57757;53.198;19.646;2024-02-21T08:46:55;46.30;;;19.00;;
70337;SDS011;57757;53.198;19.646;2024-02-21T08:49:24;68.50;;;27.00;;
70337;SDS011;57757;53.198;19.646;2024-02-21T08:52:01;52.20;;;20.30;;
70337;SDS011;57757;53.198;19.646;2024-02-21T08:54:31;52.20;;;22.40;;
70337;SDS011;57757;53.198;19.646;2024-02-21T08:57:00;40.00;;;17.20;;
70337;SDS011;57757;53.198;19.646;2024-02-21T08:59:27;34.90;;;13.70;;
70337;SDS011;57757;53.198;19.646;2024-02-21T09:01:55;32.80;;;13.60;;
70337;SDS011;57757;53.198;19.646;2024-02-21T09:04:22;43.60;;;17.70;;
70337;SDS011;57757;53.198;19.646;2024-02-21T09:06:50;45.90;;;19.50;;
70337;SDS011;57757;53.198;19.646;2024-02-21T09:09:19;42.50;;;15.40;;
70337;SDS011;57757;53.198;19.646;2024-02-21T09:11:47;43.50;;;18.10;;
70337;SDS011;57757;53.198;19.646;2024-02-21T09:14:14;39.70;;;18.50;;
70337;SDS011;57757;53.198;19.646;2024-02-21T09:16:42;60.00;;;26.80;;
70337;SDS011;57757;53.198;19.646;2024-02-21T09:19:10;38.90;;;17.40;;
70337;SDS011;57757;53.198;19.646;2024-02-21T09:21:38;67.50;;;25.20;;
70337;SDS011;57757;53.198;19.646;2024-02-21T09:24:06;57.30;;;23.20;;
70337;SDS011;57757;53.198;19.646;2024-02-21T09:26:34;51.50;;;21.20;;
70337;SDS011;57757;53.198;19.646;2024-02-21T09:29:01;86.80;;;36.50;;
70337;SDS011;57757;53.198;19.646;2024-02-21T09:31:29;58.40;;;24.60;;
70337;SDS011;57757;53.198;19.646;2024-02-21T09:33:57;49.90;;;19.00;;
70337;SDS011;57757;53.198;19.646;2024-02-21T09:36:24;44.50;;;18.40;;
70337;SDS011;57757;53.198;19.646;2024-02-21T09:38:52;48.90;;;19.00;;
70337;SDS011;57757;53.198;19.646;2024-02-21T09:43:55;71.80;;;30.60;;
70337;SDS011;57757;53.198;19.646;2024-02-21T09:46:59;48.10;;;19.30;;
70337;SDS011;57757;53.198;19.646;2024-02-21T09:49:29;40.20;;;16.50;;
70337;SDS011;57757;53.198;19.646;2024-02-21T09:52:00;53.20;;;19.40;;
70337;SDS011;57757;53.198;19.646;2024-02-21T09:54:30;58.20;;;20.40;;
70337;SDS011;57757;53.198;19.646;2024-02-21T09:57:01;50.20;;;20.40;;
70337;SDS011;57757;53.198;19.646;2024-02-21T09:59:31;62.50;;;24.10;;
70337;SDS011;57757;53.198;19.646;2024-02-21T10:01:59;91.30;;;29.20;;
70337;SDS011;57757;53.198;19.646;2024-02-21T10:04:29;98.40;;;32.20;;
70337;SDS011;57757;53.198;19.646;2024-02-21T10:06:57;70.30;;;25.70;;
70337;SDS011;57757;53.198;19.646;2024-02-21T10:09:26;63.00;;;23.80;;
70337;SDS011;57757;53.198;19.646;2024-02-21T10:14:42;82.30;;;29.70;;
70337;SDS011;57757;53.198;19.646;2024-02-21T10:17:15;123.40;;;39.80;;
70337;SDS011;57757;53.198;19.646;2024-02-21T10:19:46;141.00;;;53.10;;
70337;SDS011;57757;53.198;19.646;2024-02-21T10:22:15;76.80;;;30.90;;
70337;SDS011;57757;53.198;19.646;2024-02-21T10:24:42;90.70;;;28.20;;
70337;SDS011;57757;53.198;19.646;2024-02-21T10:27:10;131.80;;;41.70;;
70337;SDS011;57757;53.198;19.646;2024-02-21T10:29:39;81.30;;;27.80;;
70337;SDS011;57757;53.198;19.646;2024-02-21T10:32:09;74.10;;;25.30;;
70337;SDS011;57757;53.198;19.646;2024-02-21T10:34:39;106.40;;;32.80;;
70337;SDS011;57757;53.198;19.646;2024-02-21T10:37:09;100.50;;;34.30;;
70337;SDS011;57757;53.198;19.646;2024-02-21T10:39:38;84.70;;;30.00;;
70337;SDS011;57757;53.198;19.646;2024-02-21T10:42:07;82.60;;;30.80;;
70337;SDS011;57757;53.198;19.646;2024-02-21T10:44:38;91.80;;;33.90;;
70337;SDS011;57757;53.198;19.646;2024-02-21T10:47:08;54.70;;;22.70;;
70337;SDS011;57757;53.198;19.646;2024-02-21T10:49:38;64.00;;;23.00;;
70337;SDS011;57757;53.198;19.646;2024-02-21T10:55:10;48.20;;;21.50;;
70337;SDS011;57757;53.198;19.646;2024-02-21T10:57:52;47.40;;;18.90;;
70337;SDS011;57757;53.198;19.646;2024-02-21T11:00:20;36.60;;;16.80;;
70337;SDS011;57757;53.198;19.646;2024-02-21T11:02:52;41.00;;;18.30;;
70337;SDS011;57757;53.198;19.646;2024-02-21T11:05:20;41.10;;;18.30;;
70337;SDS011;57757;53.198;19.646;2024-02-21T11:07:47;35.80;;;15.80;;
70337;SDS011;57757;53.198;19.646;2024-02-21T11:13:06;37.00;;;15.00;;
70337;SDS011;57757;53.198;19.646;2024-02-21T11:15:36;34.40;;;13.90;;
70337;SDS011;57757;53.198;19.646;2024-02-21T11:18:04;43.40;;;17.20;;
70337;SDS011;57757;53.198;19.646;2024-02-21T11:20:33;28.90;;;13.70;;
70337;SDS011;57757;53.198;19.646;2024-02-21T11:23:04;32.90;;;13.50;;
70337;SDS011;57757;53.198;19.646;2024-02-21T11:25:32;36.70;;;19.60;;
70337;SDS011;57757;53.198;19.646;2024-02-21T11:28:02;31.00;;;13.50;;
70337;SDS011;57757;53.198;19.646;2024-02-21T11:30:31;33.70;;;15.00;;
70337;SDS011;57757;53.198;19.646;2024-02-21T11:33:03;41.30;;;18.40;;
70337;SDS011;57757;53.198;19.646;2024-02-21T11:35:34;34.90;;;15.00;;
70337;SDS011;57757;53.198;19.646;2024-02-21T11:38:09;31.90;;;14.90;;
70337;SDS011;57757;53.198;19.646;2024-02-21T11:40:40;30.10;;;13.40;;
70337;SDS011;57757;53.198;19.646;2024-02-21T11:43:08;32.90;;;14.40;;
70337;SDS011;57757;53.198;19.646;2024-02-21T11:45:36;32.30;;;14.40;;
70337;SDS011;57757;53.198;19.646;2024-02-21T11:48:04;30.00;;;13.10;;
70337;SDS011;57757;53.198;19.646;2024-02-21T11:50:36;38.00;;;16.40;;
70337;SDS011;57757;53.198;19.646;2024-02-21T11:53:04;31.20;;;14.10;;
70337;SDS011;57757;53.198;19.646;2024-02-21T11:55:32;29.40;;;13.50;;
70337;SDS011;57757;53.198;19.646;2024-02-21T11:57:59;31.20;;;16.80;;
70337;SDS011;57757;53.198;19.646;2024-02-21T12:00:27;28.60;;;13.80;;
70337;SDS011;57757;53.198;19.646;2024-02-21T12:02:54;32.60;;;13.70;;
70337;SDS011;57757;53.198;19.646;2024-02-21T12:05:27;33.10;;;13.70;;
70337;SDS011;57757;53.198;19.646;2024-02-21T12:07:57;31.90;;;13.80;;
70337;SDS011;57757;53.198;19.646;2024-02-21T12:10:26;35.60;;;15.20;;
70337;SDS011;57757;53.198;19.646;2024-02-21T12:15:40;27.20;;;12.10;;
70337;SDS011;57757;53.198;19.646;2024-02-21T12:18:09;43.50;;;21.60;;
70337;SDS011;57757;53.198;19.646;2024-02-21T12:20:37;42.30;;;16.60;;
70337;SDS011;57757;53.198;19.646;2024-02-21T12:23:08;28.70;;;14.60;;
70337;SDS011;57757;53.198;19.646;2024-02-21T12:25:37;22.50;;;11.20;;
70337;SDS011;57757;53.198;19.646;2024-02-21T12:28:06;28.30;;;13.70;;
70337;SDS011;57757;53.198;19.646;2024-02-21T12:30:34;24.60;;;12.40;;
70337;SDS011;57757;53.198;19.646;2024-02-21T12:33:05;28.90;;;12.90;;
70337;SDS011;57757;53.198;19.646;2024-02-21T12:35:33;31.10;;;12.80;;
70337;SDS011;57757;53.198;19.646;2024-02-21T12:38:01;39.60;;;15.00;;
70337;SDS011;57757;53.198;19.646;2024-02-21T12:40:29;33.90;;;14.20;;
70337;SDS011;57757;53.198;19.646;2024-02-21T12:43:00;40.00;;;17.10;;
70337;SDS011;57757;53.198;19.646;2024-02-21T12:45:30;24.20;;;11.90;;
70337;SDS011;57757;53.198;19.646;2024-02-21T12:47:57;27.80;;;13.70;;
70337;SDS011;57757;53.198;19.646;2024-02-21T12:50:25;28.00;;;13.90;;
70337;SDS011;57757;53.198;19.646;2024-02-21T12:52:53;29.10;;;13.40;;
70337;SDS011;57757;53.198;19.646;2024-02-21T12:55:20;30.00;;;13.50;;
70337;SDS011;57757;53.198;19.646;2024-02-21T12:57:48;26.20;;;11.20;;
70337;SDS011;57757;53.198;19.646;2024-02-21T13:00:16;29.40;;;12.60;;
70337;SDS011;57757;53.198;19.646;2024-02-21T13:02:44;39.00;;;15.70;;
70337;SDS011;57757;53.198;19.646;2024-02-21T13:05:13;40.00;;;15.20;;
70337;SDS011;57757;53.198;19.646;2024-02-21T13:07:41;32.00;;;14.50;;
70337;SDS011;57757;53.198;19.646;2024-02-21T13:10:08;36.50;;;17.30;;
70337;SDS011;57757;53.198;19.646;2024-02-21T13:12:36;25.90;;;13.00;;
70337;SDS011;57757;53.198;19.646;2024-02-21T13:15:04;33.20;;;14.70;;
70337;SDS011;57757;53.198;19.646;2024-02-21T13:17:32;29.40;;;14.30;;
70337;SDS011;57757;53.198;19.646;2024-02-21T13:20:00;37.50;;;15.00;;
70337;SDS011;57757;53.198;19.646;2024-02-21T13:22:28;35.90;;;14.70;;
70337;SDS011;57757;53.198;19.646;2024-02-21T13:24:56;31.90;;;14.40;;
70337;SDS011;57757;53.198;19.646;2024-02-21T13:27:25;36.20;;;15.90;;
70337;SDS011;57757;53.198;19.646;2024-02-21T13:29:53;32.60;;;13.80;;
70337;SDS011;57757;53.198;19.646;2024-02-21T13:32:20;40.10;;;17.50;;
70337;SDS011;57757;53.198;19.646;2024-02-21T13:34:48;35.70;;;16.70;;
70337;SDS011;57757;53.198;19.646;2024-02-21T13:37:16;31.40;;;13.90;;
70337;SDS011;57757;53.198;19.646;2024-02-21T13:39:43;46.80;;;20.50;;
70337;SDS011;57757;53.198;19.646;2024-02-21T13:42:11;44.40;;;17.60;;
70337;SDS011;57757;53.198;19.646;2024-02-21T13:44:39;38.80;;;17.60;;
70337;SDS011;57757;53.198;19.646;2024-02-21T13:47:07;44.30;;;19.80;;
70337;SDS011;57757;53.198;19.646;2024-02-21T13:49:35;52.30;;;20.60;;
70337;SDS011;57757;53.198;19.646;2024-02-21T13:52:03;50.00;;;21.90;;
70337;SDS011;57757;53.198;19.646;2024-02-21T13:54:31;51.40;;;20.50;;
70337;SDS011;57757;53.198;19.646;2024-02-21T13:56:58;43.20;;;18.70;;
70337;SDS011;57757;53.198;19.646;2024-02-21T13:59:26;42.90;;;20.30;;
70337;SDS011;57757;53.198;19.646;2024-02-21T14:01:54;46.00;;;20.50;;
70337;SDS011;57757;53.198;19.646;2024-02-21T14:04:22;60.40;;;23.70;;
70337;SDS011;57757;53.198;19.646;2024-02-21T14:06:49;43.00;;;17.00;;
70337;SDS011;57757;53.198;19.646;2024-02-21T14:09:17;40.20;;;20.30;;
70337;SDS011;57757;53.198;19.646;2024-02-21T14:11:44;36.20;;;17.80;;
70337;SDS011;57757;53.198;19.646;2024-02-21T14:14:12;32.80;;;17.10;;
70337;SDS011;57757;53.198;19.646;2024-02-21T14:16:42;41.40;;;18.00;;
70337;SDS011;57757;53.198;19.646;2024-02-21T14:19:09;41.10;;;17.70;;
70337;SDS011;57757;53.198;19.646;2024-02-21T14:21:39;37.60;;;15.10;;
70337;SDS011;57757;53.198;19.646;2024-02-21T14:24:07;45.30;;;20.40;;
70337;SDS011;57757;53.198;19.646;2024-02-21T14:26:35;38.50;;;16.70;;
70337;SDS011;57757;53.198;19.646;2024-02-21T14:29:03;44.60;;;20.40;;
70337;SDS011;57757;53.198;19.646;2024-02-21T14:31:31;31.20;;;14.90;;
70337;SDS011;57757;53.198;19.646;2024-02-21T14:33:59;30.90;;;14.90;;